sensor_id;sensor_type;location;lat;lon;timestamp;P1;durP1;ratioP1;P2;durP2;ratioP2
75112;SDS011;63692;47.338;8.520;2022-11-20T06:04:20;3.65;;;2.20;;
75112;SDS011;63692;47.338;8.520;2022-11-20T06:06:46;4.57;;;2.45;;
75112;SDS011;63692;47.338;8.520;2022-11-20T06:09:11;5.50;;;2.53;;
75112;SDS011;63692;47.338;8.520;2022-11-20T06:29:00;6.70;;;2.38;;
75112;SDS011;63692;47.338;8.520;2022-11-20T06:31:25;4.47;;;1.85;;
75112;SDS011;63692;47.338;8.520;2022-11-20T06:33:51;5.57;;;2.22;;
75112;SDS011;63692;47.338;8.520;2022-11-20T06:36:18;5.78;;;1.90;;
75112;SDS011;63692;47.338;8.520;2022-11-20T07:26:12;3.53;;;1.80;;
75112;SDS011;63692;47.338;8.520;2022-11-20T07:31:06;3.88;;;1.80;;
75112;SDS011;63692;47.338;8.520;2022-11-20T07:53:27;3.10;;;1.80;;
75112;SDS011;63692;47.338;8.520;2022-11-20T07:58:20;3.03;;;1.80;;
75112;SDS011;63692;47.338;8.520;2022-11-20T08:00:46;5.85;;;1.85;;
75112;SDS011;63692;47.338;8.520;2022-11-20T08:03:12;2.67;;;1.60;;
75112;SDS011;63692;47.338;8.520;2022-11-20T08:23:22;3.30;;;1.52;;
75112;SDS011;63692;47.338;8.520;2022-11-20T08:30:50;3.75;;;1.67;;
75112;SDS011;63692;47.338;8.520;2022-11-20T08:33:16;4.75;;;1.50;;
75112;SDS011;63692;47.338;8.520;2022-11-20T08:38:12;4.57;;;1.70;;
75112;SDS011;63692;47.338;8.520;2022-11-20T08:43:05;4.40;;;1.52;;
75112;SDS011;63692;47.338;8.520;2022-11-20T08:50:25;4.00;;;1.58;;
75112;SDS011;63692;47.338;8.520;2022-11-20T08:52:51;4.10;;;1.65;;
75112;SDS011;63692;47.338;8.520;2022-11-20T08:55:16;4.50;;;2.30;;
75112;SDS011;63692;47.338;8.520;2022-11-20T08:57:42;3.75;;;1.50;;
75112;SDS011;63692;47.338;8.520;2022-11-20T09:00:09;2.85;;;1.20;;
75112;SDS011;63692;47.338;8.520;2022-11-20T09:02:36;6.40;;;1.48;;
75112;SDS011;63692;47.338;8.520;2022-11-20T09:05:02;4.90;;;1.55;;
75112;SDS011;63692;47.338;8.520;2022-11-20T09:07:28;3.15;;;1.50;;
75112;SDS011;63692;47.338;8.520;2022-11-20T09:09:54;2.33;;;1.23;;
75112;SDS011;63692;47.338;8.520;2022-11-20T09:12:20;2.15;;;1.10;;
75112;SDS011;63692;47.338;8.520;2022-11-20T09:14:46;2.67;;;1.15;;
75112;SDS011;63692;47.338;8.520;2022-11-20T09:17:11;2.90;;;1.23;;
75112;SDS011;63692;47.338;8.520;2022-11-20T09:19:39;3.33;;;1.38;;
75112;SDS011;63692;47.338;8.520;2022-11-20T09:22:05;3.30;;;1.40;;
75112;SDS011;63692;47.338;8.520;2022-11-20T09:24:31;3.10;;;1.20;;
75112;SDS011;63692;47.338;8.520;2022-11-20T09:26:57;3.35;;;1.20;;
75112;SDS011;63692;47.338;8.520;2022-11-20T09:29:22;3.58;;;1.40;;
75112;SDS011;63692;47.338;8.520;2022-11-20T09:31:48;3.67;;;1.30;;
75112;SDS011;63692;47.338;8.520;2022-11-20T09:34:14;3.95;;;1.20;;
75112;SDS011;63692;47.338;8.520;2022-11-20T09:36:39;4.43;;;1.55;;
75112;SDS011;63692;47.338;8.520;2022-11-20T09:39:05;3.08;;;1.20;;
75112;SDS011;63692;47.338;8.520;2022-11-20T09:54:50;3.50;;;1.40;;
75112;SDS011;63692;47.338;8.520;2022-11-20T09:57:20;2.53;;;1.20;;
75112;SDS011;63692;47.338;8.520;2022-11-20T09:59:51;2.55;;;1.20;;
75112;SDS011;63692;47.338;8.520;2022-11-20T10:04:57;2.47;;;1.25;;
75112;SDS011;63692;47.338;8.520;2022-11-20T10:10:29;2.67;;;1.17;;
75112;SDS011;63692;47.338;8.520;2022-11-20T10:30:18;2.60;;;1.38;;
75112;SDS011;63692;47.338;8.520;2022-11-20T10:32:52;3.15;;;1.52;;
75112;SDS011;63692;47.338;8.520;2022-11-20T10:35:33;4.50;;;1.33;;
75112;SDS011;63692;47.338;8.520;2022-11-20T10:38:03;3.60;;;1.40;;
75112;SDS011;63692;47.338;8.520;2022-11-20T10:43:10;2.83;;;1.23;;
75112;SDS011;63692;47.338;8.520;2022-11-20T10:45:58;3.33;;;1.40;;
75112;SDS011;63692;47.338;8.520;2022-11-20T10:48:30;2.97;;;1.13;;
75112;SDS011;63692;47.338;8.520;2022-11-20T10:56:47;3.15;;;1.17;;
75112;SDS011;63692;47.338;8.520;2022-11-20T10:59:27;2.53;;;1.60;;
75112;SDS011;63692;47.338;8.520;2022-11-20T11:01:58;2.92;;;1.40;;
75112;SDS011;63692;47.338;8.520;2022-11-20T11:09:50;2.65;;;1.40;;
75112;SDS011;63692;47.338;8.520;2022-11-20T11:12:19;5.97;;;1.38;;
75112;SDS011;63692;47.338;8.520;2022-11-20T11:14:47;2.72;;;1.20;;
75112;SDS011;63692;47.338;8.520;2022-11-20T11:19:56;2.10;;;1.30;;
75112;SDS011;63692;47.338;8.520;2022-11-20T11:22:31;2.63;;;1.05;;
75112;SDS011;63692;47.338;8.520;2022-11-20T11:24:59;2.17;;;1.00;;
75112;SDS011;63692;47.338;8.520;2022-11-20T11:27:25;3.42;;;1.33;;
75112;SDS011;63692;47.338;8.520;2022-11-20T11:29:51;3.72;;;1.60;;
75112;SDS011;63692;47.338;8.520;2022-11-20T11:32:29;3.75;;;1.30;;
75112;SDS011;63692;47.338;8.520;2022-11-20T11:35:01;2.15;;;1.20;;
75112;SDS011;63692;47.338;8.520;2022-11-20T11:37:32;2.95;;;1.10;;
75112;SDS011;63692;47.338;8.520;2022-11-20T11:40:00;2.80;;;1.30;;
75112;SDS011;63692;47.338;8.520;2022-11-20T11:42:27;3.97;;;1.20;;
75112;SDS011;63692;47.338;8.520;2022-11-20T11:44:53;2.00;;;1.08;;
75112;SDS011;63692;47.338;8.520;2022-11-20T11:52:39;3.63;;;1.40;;
75112;SDS011;63692;47.338;8.520;2022-11-20T12:01:02;3.15;;;1.40;;
75112;SDS011;63692;47.338;8.520;2022-11-20T12:03:39;3.05;;;1.20;;
75112;SDS011;63692;47.338;8.520;2022-11-20T12:06:11;2.85;;;1.08;;
75112;SDS011;63692;47.338;8.520;2022-11-20T12:13:58;2.75;;;1.20;;
75112;SDS011;63692;47.338;8.520;2022-11-20T12:16:36;2.38;;;1.20;;
75112;SDS011;63692;47.338;8.520;2022-11-20T12:19:04;3.50;;;1.30;;
75112;SDS011;63692;47.338;8.520;2022-11-20T12:21:45;1.95;;;1.10;;
75112;SDS011;63692;47.338;8.520;2022-11-20T12:32:37;3.70;;;1.48;;
75112;SDS011;63692;47.338;8.520;2022-11-20T12:41:14;3.35;;;1.13;;
75112;SDS011;63692;47.338;8.520;2022-11-20T12:47:05;2.42;;;1.20;;
75112;SDS011;63692;47.338;8.520;2022-11-20T12:52:47;3.10;;;1.00;;
75112;SDS011;63692;47.338;8.520;2022-11-20T12:58:21;4.05;;;1.27;;
75112;SDS011;63692;47.338;8.520;2022-11-20T13:01:03;1.98;;;0.90;;
75112;SDS011;63692;47.338;8.520;2022-11-20T13:04:19;2.13;;;1.00;;
75112;SDS011;63692;47.338;8.520;2022-11-20T13:07:00;2.35;;;1.02;;
75112;SDS011;63692;47.338;8.520;2022-11-20T13:09:47;1.88;;;0.88;;
75112;SDS011;63692;47.338;8.520;2022-11-20T13:12:33;1.77;;;0.95;;
75112;SDS011;63692;47.338;8.520;2022-11-20T13:17:59;2.50;;;1.02;;
75112;SDS011;63692;47.338;8.520;2022-11-20T13:20:30;3.42;;;0.98;;
75112;SDS011;63692;47.338;8.520;2022-11-20T13:22:58;3.00;;;0.90;;
75112;SDS011;63692;47.338;8.520;2022-11-20T13:25:25;2.38;;;0.80;;
75112;SDS011;63692;47.338;8.520;2022-11-20T13:27:53;2.72;;;0.93;;
75112;SDS011;63692;47.338;8.520;2022-11-20T13:30:21;2.13;;;0.90;;
75112;SDS011;63692;47.338;8.520;2022-11-20T13:32:52;2.00;;;0.80;;
75112;SDS011;63692;47.338;8.520;2022-11-20T13:38:01;2.03;;;0.80;;
75112;SDS011;63692;47.338;8.520;2022-11-20T13:40:37;2.35;;;0.70;;
75112;SDS011;63692;47.338;8.520;2022-11-20T13:45:54;2.38;;;0.60;;
75112;SDS011;63692;47.338;8.520;2022-11-20T13:48:40;2.35;;;0.60;;
75112;SDS011;63692;47.338;8.520;2022-11-20T13:51:12;3.17;;;0.70;;
75112;SDS011;63692;47.338;8.520;2022-11-20T13:53:57;2.33;;;0.73;;
75112;SDS011;63692;47.338;8.520;2022-11-20T13:56:52;1.90;;;0.68;;
75112;SDS011;63692;47.338;8.520;2022-11-20T14:02:08;2.80;;;0.70;;
75112;SDS011;63692;47.338;8.520;2022-11-20T14:04:38;2.17;;;0.70;;
75112;SDS011;63692;47.338;8.520;2022-11-20T14:07:10;3.42;;;0.85;;
75112;SDS011;63692;47.338;8.520;2022-11-20T14:09:36;1.55;;;0.70;;
75112;SDS011;63692;47.338;8.520;2022-11-20T14:51:38;2.45;;;0.90;;
75112;SDS011;63692;47.338;8.520;2022-11-20T14:54:17;1.65;;;0.80;;
75112;SDS011;63692;47.338;8.520;2022-11-20T14:57:00;5.65;;;0.82;;
75112;SDS011;63692;47.338;8.520;2022-11-20T15:09:19;2.83;;;1.00;;
75112;SDS011;63692;47.338;8.520;2022-11-20T15:11:57;4.15;;;0.90;;
75112;SDS011;63692;47.338;8.520;2022-11-20T15:39:22;3.42;;;1.30;;
75112;SDS011;63692;47.338;8.520;2022-11-20T15:41:48;3.45;;;1.30;;
75112;SDS011;63692;47.338;8.520;2022-11-20T15:46:41;6.13;;;1.70;;
75112;SDS011;63692;47.338;8.520;2022-11-20T15:49:13;5.30;;;2.00;;
75112;SDS011;63692;47.338;8.520;2022-11-20T15:51:43;4.57;;;1.73;;
75112;SDS011;63692;47.338;8.520;2022-11-20T15:54:12;4.10;;;1.77;;
75112;SDS011;63692;47.338;8.520;2022-11-20T15:56:40;6.03;;;1.85;;
75112;SDS011;63692;47.338;8.520;2022-11-20T15:59:05;5.15;;;2.30;;
75112;SDS011;63692;47.338;8.520;2022-11-20T16:01:33;6.05;;;2.33;;
75112;SDS011;63692;47.338;8.520;2022-11-20T16:03:59;5.20;;;2.20;;
75112;SDS011;63692;47.338;8.520;2022-11-20T16:06:25;5.75;;;1.65;;
75112;SDS011;63692;47.338;8.520;2022-11-20T16:08:51;4.28;;;1.75;;
75112;SDS011;63692;47.338;8.520;2022-11-20T16:11:17;3.60;;;1.50;;
75112;SDS011;63692;47.338;8.520;2022-11-20T16:13:43;5.50;;;1.98;;
75112;SDS011;63692;47.338;8.520;2022-11-20T16:16:32;3.55;;;2.03;;
75112;SDS011;63692;47.338;8.520;2022-11-20T16:18:59;4.28;;;1.80;;
75112;SDS011;63692;47.338;8.520;2022-11-20T16:21:25;4.45;;;1.88;;
75112;SDS011;63692;47.338;8.520;2022-11-20T16:23:58;4.50;;;2.00;;
75112;SDS011;63692;47.338;8.520;2022-11-20T16:28:52;2.78;;;1.50;;
75112;SDS011;63692;47.338;8.520;2022-11-20T16:33:54;3.70;;;1.58;;
75112;SDS011;63692;47.338;8.520;2022-11-20T16:36:22;3.90;;;1.25;;
75112;SDS011;63692;47.338;8.520;2022-11-20T16:38:54;6.10;;;1.98;;
75112;SDS011;63692;47.338;8.520;2022-11-20T16:41:21;5.50;;;1.80;;
75112;SDS011;63692;47.338;8.520;2022-11-20T16:43:48;6.20;;;2.63;;
75112;SDS011;63692;47.338;8.520;2022-11-20T16:46:16;4.13;;;2.30;;
75112;SDS011;63692;47.338;8.520;2022-11-20T16:48:43;7.05;;;3.03;;
75112;SDS011;63692;47.338;8.520;2022-11-20T16:51:11;8.57;;;3.42;;
75112;SDS011;63692;47.338;8.520;2022-11-20T16:53:37;10.15;;;4.28;;
75112;SDS011;63692;47.338;8.520;2022-11-20T16:56:14;5.28;;;2.45;;
75112;SDS011;63692;47.338;8.520;2022-11-20T16:58:44;5.15;;;2.47;;
75112;SDS011;63692;47.338;8.520;2022-11-20T17:01:12;9.77;;;2.70;;
75112;SDS011;63692;47.338;8.520;2022-11-20T17:06:13;4.40;;;2.10;;
75112;SDS011;63692;47.338;8.520;2022-11-20T17:08:40;4.65;;;1.80;;
75112;SDS011;63692;47.338;8.520;2022-11-20T17:13:35;3.15;;;1.42;;
75112;SDS011;63692;47.338;8.520;2022-11-20T17:16:05;8.73;;;4.30;;
75112;SDS011;63692;47.338;8.520;2022-11-20T17:21:04;4.45;;;1.58;;
75112;SDS011;63692;47.338;8.520;2022-11-20T17:23:31;4.70;;;2.10;;
75112;SDS011;63692;47.338;8.520;2022-11-20T17:26:02;4.68;;;1.90;;
75112;SDS011;63692;47.338;8.520;2022-11-20T17:28:30;4.15;;;1.67;;
75112;SDS011;63692;47.338;8.520;2022-11-20T17:31:00;5.65;;;1.58;;
75112;SDS011;63692;47.338;8.520;2022-11-20T17:35:54;3.92;;;1.30;;
75112;SDS011;63692;47.338;8.520;2022-11-20T17:38:20;5.03;;;1.80;;
75112;SDS011;63692;47.338;8.520;2022-11-20T17:40:46;4.30;;;1.95;;
75112;SDS011;63692;47.338;8.520;2022-11-20T17:43:11;4.88;;;1.60;;
75112;SDS011;63692;47.338;8.520;2022-11-20T17:45:37;4.70;;;1.92;;
75112;SDS011;63692;47.338;8.520;2022-11-20T17:48:03;5.30;;;1.90;;
75112;SDS011;63692;47.338;8.520;2022-11-20T17:50:29;4.47;;;1.90;;
75112;SDS011;63692;47.338;8.520;2022-11-20T17:52:54;5.07;;;1.85;;
75112;SDS011;63692;47.338;8.520;2022-11-20T17:55:20;4.20;;;1.60;;
75112;SDS011;63692;47.338;8.520;2022-11-20T17:57:45;3.40;;;1.27;;
75112;SDS011;63692;47.338;8.520;2022-11-20T18:00:20;4.30;;;1.48;;
75112;SDS011;63692;47.338;8.520;2022-11-20T18:02:46;4.25;;;1.52;;
75112;SDS011;63692;47.338;8.520;2022-11-20T18:05:12;2.45;;;1.23;;
75112;SDS011;63692;47.338;8.520;2022-11-20T18:07:38;2.20;;;1.10;;
75112;SDS011;63692;47.338;8.520;2022-11-20T18:10:04;3.38;;;1.35;;
75112;SDS011;63692;47.338;8.520;2022-11-20T18:12:31;3.22;;;1.40;;
75112;SDS011;63692;47.338;8.520;2022-11-20T18:14:57;2.92;;;1.40;;
75112;SDS011;63692;47.338;8.520;2022-11-20T18:17:22;3.55;;;1.30;;
75112;SDS011;63692;47.338;8.520;2022-11-20T18:19:48;3.80;;;1.15;;
75112;SDS011;63692;47.338;8.520;2022-11-20T18:22:15;2.90;;;1.30;;
75112;SDS011;63692;47.338;8.520;2022-11-20T18:24:42;3.38;;;1.33;;
75112;SDS011;63692;47.338;8.520;2022-11-20T18:27:13;2.13;;;1.10;;
75112;SDS011;63692;47.338;8.520;2022-11-20T18:29:40;2.40;;;1.20;;
75112;SDS011;63692;47.338;8.520;2022-11-20T18:32:06;3.40;;;1.60;;
75112;SDS011;63692;47.338;8.520;2022-11-20T18:34:31;3.15;;;1.30;;
75112;SDS011;63692;47.338;8.520;2022-11-20T18:36:57;1.90;;;1.17;;
75112;SDS011;63692;47.338;8.520;2022-11-20T18:39:23;3.25;;;1.60;;
75112;SDS011;63692;47.338;8.520;2022-11-20T18:41:48;2.63;;;1.30;;
75112;SDS011;63692;47.338;8.520;2022-11-20T18:44:33;2.95;;;1.50;;
75112;SDS011;63692;47.338;8.520;2022-11-20T18:47:19;2.92;;;1.40;;
75112;SDS011;63692;47.338;8.520;2022-11-20T18:49:47;4.45;;;1.63;;
75112;SDS011;63692;47.338;8.520;2022-11-20T18:52:16;2.95;;;1.40;;
75112;SDS011;63692;47.338;8.520;2022-11-20T18:54:43;2.80;;;1.30;;
75112;SDS011;63692;47.338;8.520;2022-11-20T18:57:09;3.20;;;1.30;;
75112;SDS011;63692;47.338;8.520;2022-11-20T18:59:38;3.25;;;1.38;;
75112;SDS011;63692;47.338;8.520;2022-11-20T19:02:07;3.90;;;1.40;;
75112;SDS011;63692;47.338;8.520;2022-11-20T19:04:37;3.35;;;1.27;;
75112;SDS011;63692;47.338;8.520;2022-11-20T19:07:03;4.15;;;1.33;;
75112;SDS011;63692;47.338;8.520;2022-11-20T19:09:28;2.72;;;0.98;;
75112;SDS011;63692;47.338;8.520;2022-11-20T19:11:54;2.72;;;1.00;;
75112;SDS011;63692;47.338;8.520;2022-11-20T19:14:20;3.65;;;1.13;;
75112;SDS011;63692;47.338;8.520;2022-11-20T19:16:46;2.83;;;1.05;;
75112;SDS011;63692;47.338;8.520;2022-11-20T19:19:13;3.20;;;1.60;;
75112;SDS011;63692;47.338;8.520;2022-11-20T19:21:39;2.15;;;1.02;;
75112;SDS011;63692;47.338;8.520;2022-11-20T19:24:06;2.47;;;1.20;;
75112;SDS011;63692;47.338;8.520;2022-11-20T19:26:36;2.58;;;1.40;;
75112;SDS011;63692;47.338;8.520;2022-11-20T19:29:12;2.35;;;1.15;;
75112;SDS011;63692;47.338;8.520;2022-11-20T19:31:41;2.60;;;1.20;;
75112;SDS011;63692;47.338;8.520;2022-11-20T19:36:35;2.00;;;1.00;;
75112;SDS011;63692;47.338;8.520;2022-11-20T19:39:03;3.13;;;1.35;;
